Time;durP1;ratioP1;P1;durP2;ratioP2;P2;SDS_P1;SDS_P2;PMS_P1;PMS_P2;Temp;Humidity;BMP_temperature;BMP_pressure;BME280_temperature;BME280_humidity;BME280_pressure;Samples;Min_cycle;Max_cycle;Signal;HPM_P1;HPM_P2
2023/07/06 00:01:48;;;;;;;6.20;1.60;;;;;;;;;;5075467;28;20036;-58
2023/07/06 00:04:14;;;;;;;2.35;1.23;;;;;;;;;;5088396;28;20032;-61
2023/07/06 00:06:42;;;;;;;5.63;1.52;;;;;;;;;;5087314;28;20040;-60
2023/07/06 00:09:16;;;;;;;2.85;1.00;;;;;;;;;;5055473;28;20048;-51
2023/07/06 00:11:44;;;;;;;4.57;1.27;;;;;;;;;;5055904;28;20121;-55
2023/07/06 00:14:11;;;;;;;2.92;1.30;;;;;;;;;;5064040;28;20044;-57
2023/07/06 00:16:44;;;;;;;3.75;1.17;;;;;;;;;;5061154;28;20136;-54
2023/07/06 00:19:10;;;;;;;2.05;0.93;;;;;;;;;;5047856;28;20048;-59
2023/07/06 00:21:36;;;;;;;2.20;1.20;;;;;;;;;;5056753;28;20070;-56
2023/07/06 00:24:02;;;;;;;2.00;1.25;;;;;;;;;;5062333;28;20064;-56
2023/07/06 00:26:28;;;;;;;2.45;1.20;;;;;;;;;;5053218;28;20144;-60
2023/07/06 00:28:55;;;;;;;3.33;1.20;;;;;;;;;;5058461;28;20067;-58
2023/07/06 00:31:32;;;;;;;2.65;1.13;;;;;;;;;;5057324;28;20163;-62
2023/07/06 00:34:03;;;;;;;3.50;1.40;;;;;;;;;;5062845;28;20078;-54
2023/07/06 00:36:29;;;;;;;1.85;1.17;;;;;;;;;;5061079;28;20051;-58
2023/07/06 00:38:55;;;;;;;;;;;;;;;;;;5059818;28;20044;-60
2023/07/06 00:41:21;;;;;;;3.25;1.10;;;;;;;;;;5063780;28;19925;-54
2023/07/06 00:43:49;;;;;;;2.45;1.20;;;;;;;;;;5059873;28;20070;-57
2023/07/06 00:46:15;;;;;;;2.10;1.30;;;;;;;;;;5061338;28;20036;-59
2023/07/06 00:48:44;;;;;;;2.72;1.38;;;;;;;;;;5061728;28;20143;-59
2023/07/06 00:51:25;;;;;;;1.73;1.02;;;;;;;;;;5061243;28;20438;-62
2023/07/06 00:53:54;;;;;;;4.25;1.20;;;;;;;;;;5062635;28;20044;-59
2023/07/06 00:56:23;;;;;;;8.10;1.40;;;;;;;;;;5061878;28;20081;-61
2023/07/06 00:58:51;;;;;;;3.45;1.20;;;;;;;;;;5064488;28;20029;-57
2023/07/06 01:01:21;;;;;;;2.85;1.58;;;;;;;;;;5060107;28;20175;-59
2023/07/06 01:03:49;;;;;;;3.28;1.40;;;;;;;;;;5057903;28;20419;-58
2023/07/06 01:06:24;;;;;;;2.88;1.60;;;;;;;;;;5065689;28;20037;-57
2023/07/06 01:08:50;;;;;;;3.33;1.45;;;;;;;;;;5065284;28;20408;-63
2023/07/06 01:11:17;;;;;;;3.78;1.70;;;;;;;;;;5059509;28;20037;-58
2023/07/06 01:13:47;;;;;;;3.55;1.60;;;;;;;;;;5063515;28;20036;-56
2023/07/06 01:16:18;;;;;;;2.88;1.48;;;;;;;;;;5058197;28;20135;-59
2023/07/06 01:18:53;;;;;;;1.42;1.15;;;;;;;;;;5066119;28;20119;-52
2023/07/06 01:21:21;;;;;;;3.60;1.50;;;;;;;;;;5060359;28;20069;-52
2023/07/06 01:23:50;;;;;;;3.10;1.52;;;;;;;;;;5064520;28;20093;-61
2023/07/06 01:26:28;;;;;;;2.33;1.10;;;;;;;;;;5065459;28;20052;-62
2023/07/06 01:28:59;;;;;;;3.35;1.73;;;;;;;;;;5061570;28;20072;-57
2023/07/06 01:31:28;;;;;;;3.88;1.30;;;;;;;;;;5061345;28;20050;-61
2023/07/06 01:34:02;;;;;;;2.20;1.48;;;;;;;;;;5064202;28;20067;-57
2023/07/06 01:36:51;;;;;;;4.82;1.40;;;;;;;;;;5067288;28;20074;-57
2023/07/06 01:39:18;;;;;;;5.00;1.48;;;;;;;;;;5041667;28;20048;-55
2023/07/06 01:41:45;;;;;;;2.95;1.50;;;;;;;;;;5064193;28;20037;-56
2023/07/06 01:44:13;;;;;;;3.15;1.50;;;;;;;;;;5076244;28;20040;-57
2023/07/06 01:46:43;;;;;;;3.78;1.63;;;;;;;;;;5061686;28;20123;-60
2023/07/06 01:49:10;;;;;;;3.88;1.40;;;;;;;;;;5062441;28;20043;-54
2023/07/06 01:51:44;;;;;;;2.95;1.50;;;;;;;;;;5065308;28;20583;-56
2023/07/06 01:54:14;;;;;;;2.70;1.50;;;;;;;;;;5060470;28;20048;-63
2023/07/06 01:56:47;;;;;;;1.65;1.25;;;;;;;;;;5057250;28;20044;-56
2023/07/06 01:59:17;;;;;;;4.95;1.75;;;;;;;;;;5060542;28;20041;-59
2023/07/06 02:01:45;;;;;;;1.77;1.20;;;;;;;;;;5056802;28;20037;-56
2023/07/06 02:04:12;;;;;;;4.07;1.42;;;;;;;;;;5060200;28;20041;-56
2023/07/06 02:06:38;;;;;;;5.25;1.35;;;;;;;;;;5059882;28;20044;-53
2023/07/06 02:09:05;;;;;;;;;;;;;;;;;;5059877;28;20032;-55
2023/07/06 02:11:33;;;;;;;5.70;1.70;;;;;;;;;;5066095;28;19920;-57
2023/07/06 02:13:59;;;;;;;2.40;1.30;;;;;;;;;;5064754;28;20056;-58
2023/07/06 02:16:25;;;;;;;2.28;1.35;;;;;;;;;;5061878;28;20047;-60
2023/07/06 02:18:53;;;;;;;3.33;1.60;;;;;;;;;;5066734;28;20504;-57
2023/07/06 02:21:22;;;;;;;2.97;1.40;;;;;;;;;;5062090;28;20045;-56
2023/07/06 02:23:48;;;;;;;3.08;1.40;;;;;;;;;;5064743;28;20471;-57
2023/07/06 02:26:14;;;;;;;;;;;;;;;;;;5055104;28;20040;-61
2023/07/06 02:28:42;;;;;;;2.72;1.42;;;;;;;;;;5068110;28;19994;-61
2023/07/06 02:31:08;;;;;;;2.88;1.55;;;;;;;;;;5064102;28;20052;-61
2023/07/06 02:33:34;;;;;;;;;;;;;;;;;;5067063;28;20032;-61
2023/07/06 02:36:00;;;;;;;3.28;1.80;;;;;;;;;;5061296;28;19982;-61
2023/07/06 02:38:29;;;;;;;5.25;1.75;;;;;;;;;;5066937;28;20943;-59
2023/07/06 02:40:57;;;;;;;6.57;1.92;;;;;;;;;;5059837;28;20040;-59
2023/07/06 02:43:25;;;;;;;3.63;1.80;;;;;;;;;;5063903;28;20032;-61
2023/07/06 02:45:51;;;;;;;2.97;1.45;;;;;;;;;;5066107;28;20055;-59
2023/07/06 02:48:17;;;;;;;3.35;1.80;;;;;;;;;;5061898;28;20093;-62
2023/07/06 02:50:48;;;;;;;6.13;2.17;;;;;;;;;;5065987;28;20043;-56
2023/07/06 02:53:15;;;;;;;5.55;1.75;;;;;;;;;;5063128;28;20040;-57
2023/07/06 02:55:41;;;;;;;5.35;2.15;;;;;;;;;;5062309;28;20040;-57
2023/07/06 02:58:07;;;;;;;;;;;;;;;;;;5057207;28;20113;-58
2023/07/06 03:00:33;;;;;;;4.10;1.90;;;;;;;;;;5060064;28;19939;-59
2023/07/06 03:02:59;;;;;;;6.07;2.03;;;;;;;;;;5062662;28;20032;-54
2023/07/06 03:05:25;;;;;;;5.65;1.73;;;;;;;;;;5060293;28;20050;-58
2023/07/06 03:07:52;;;;;;;2.95;1.98;;;;;;;;;;5057033;28;20032;-60
2023/07/06 03:10:21;;;;;;;6.15;2.40;;;;;;;;;;5064573;28;20039;-61
2023/07/06 03:12:51;;;;;;;4.65;2.38;;;;;;;;;;5058782;28;20143;-58
2023/07/06 03:15:17;;;;;;;8.63;2.35;;;;;;;;;;5065100;28;20036;-52
2023/07/06 03:17:48;;;;;;;7.70;2.60;;;;;;;;;;5059799;28;20132;-60
2023/07/06 03:20:14;;;;;;;8.52;2.78;;;;;;;;;;5065839;28;20041;-58
2023/07/06 03:22:41;;;;;;;6.38;1.92;;;;;;;;;;5060503;28;20729;-60
2023/07/06 03:25:09;;;;;;;4.47;1.90;;;;;;;;;;5061376;28;20032;-59
2023/07/06 03:27:40;;;;;;;3.88;2.28;;;;;;;;;;5061175;28;20052;-62
2023/07/06 03:30:09;;;;;;;2.97;1.70;;;;;;;;;;5061053;28;20530;-50
2023/07/06 03:32:37;;;;;;;5.43;1.98;;;;;;;;;;5056981;28;20055;-55
2023/07/06 03:35:04;;;;;;;6.18;1.90;;;;;;;;;;5076023;28;20372;-52
2023/07/06 03:37:30;;;;;;;3.28;2.10;;;;;;;;;;5059143;28;20044;-59
2023/07/06 03:39:56;;;;;;;;;;;;;;;;;;5068959;28;20498;-62
2023/07/06 03:42:21;;;;;;;4.32;2.08;;;;;;;;;;5056679;28;19970;-57
2023/07/06 03:44:47;;;;;;;;;;;;;;;;;;5061226;28;20664;-58
2023/07/06 03:47:17;;;;;;;4.60;1.60;;;;;;;;;;5058016;28;20393;-57
2023/07/06 03:49:43;;;;;;;7.50;2.45;;;;;;;;;;5062374;28;20047;-63
2023/07/06 03:52:09;;;;;;;;;;;;;;;;;;5059669;28;20044;-60
2023/07/06 03:54:36;;;;;;;7.72;2.50;;;;;;;;;;5065375;28;19920;-52
2023/07/06 03:57:05;;;;;;;7.82;2.30;;;;;;;;;;5067096;28;20083;-58
2023/07/06 03:59:33;;;;;;;3.70;2.13;;;;;;;;;;5090414;28;20346;-62
2023/07/06 04:01:59;;;;;;;6.55;2.53;;;;;;;;;;5057561;28;20036;-58
2023/07/06 04:04:28;;;;;;;9.68;2.58;;;;;;;;;;5075322;28;20047;-62
2023/07/06 04:06:57;;;;;;;6.30;2.25;;;;;;;;;;5067016;28;20480;-62
2023/07/06 04:09:25;;;;;;;9.95;2.45;;;;;;;;;;5067872;28;20409;-59
2023/07/06 04:11:52;;;;;;;5.50;2.05;;;;;;;;;;5058870;28;20516;-57
2023/07/06 04:14:24;;;;;;;4.80;2.45;;;;;;;;;;5071607;28;20504;-59
2023/07/06 04:16:51;;;;;;;5.53;2.45;;;;;;;;;;5057616;28;20044;-60
2023/07/06 04:19:17;;;;;;;8.55;2.63;;;;;;;;;;5066171;28;20036;-59
2023/07/06 04:21:43;;;;;;;4.50;2.20;;;;;;;;;;5064428;28;20528;-58
2023/07/06 04:24:09;;;;;;;;;;;;;;;;;;5066800;28;20056;-57
2023/07/06 04:26:35;;;;;;;11.13;2.65;;;;;;;;;;5069577;28;19950;-57
2023/07/06 04:29:02;;;;;;;8.02;2.03;;;;;;;;;;5067815;28;20040;-56
2023/07/06 04:31:28;;;;;;;8.13;2.45;;;;;;;;;;5051204;28;20105;-59
2023/07/06 04:33:54;;;;;;;;;;;;;;;;;;5071748;28;20495;-60
2023/07/06 04:36:20;;;;;;;7.53;2.92;;;;;;;;;;5071341;28;20493;-55
2023/07/06 04:38:46;;;;;;;6.13;2.65;;;;;;;;;;5069280;28;20821;-54
2023/07/06 04:41:13;;;;;;;8.45;2.67;;;;;;;;;;5067114;28;20037;-55
2023/07/06 04:43:39;;;;;;;7.97;3.03;;;;;;;;;;5062730;28;20142;-56
2023/07/06 04:46:05;;;;;;;8.95;3.10;;;;;;;;;;5065158;28;20098;-58
2023/07/06 04:48:33;;;;;;;6.35;3.03;;;;;;;;;;5085037;28;20043;-60
2023/07/06 04:50:59;;;;;;;7.28;3.88;;;;;;;;;;5072708;28;20086;-59
2023/07/06 04:53:26;;;;;;;10.60;4.38;;;;;;;;;;5062244;28;20049;-51
2023/07/06 04:55:52;;;;;;;13.40;4.00;;;;;;;;;;5067495;28;20036;-58
2023/07/06 04:58:18;;;;;;;;;;;;;;;;;;5067204;28;20060;-61
2023/07/06 05:00:45;;;;;;;8.17;4.63;;;;;;;;;;5065339;28;19920;-58
2023/07/06 05:03:12;;;;;;;10.95;5.13;;;;;;;;;;5063425;28;20047;-56
2023/07/06 05:05:40;;;;;;;12.32;5.35;;;;;;;;;;5059036;28;20052;-61
2023/07/06 05:08:06;;;;;;;11.27;5.82;;;;;;;;;;5066990;28;20082;-57
2023/07/06 05:10:34;;;;;;;10.65;5.97;;;;;;;;;;5068550;28;20029;-60
2023/07/06 05:13:00;;;;;;;11.38;5.40;;;;;;;;;;5066234;28;20039;-56
2023/07/06 05:15:26;;;;;;;10.43;5.45;;;;;;;;;;5064036;28;20803;-58
2023/07/06 05:17:54;;;;;;;;;;;;;;;;;;5064411;28;20039;-53
2023/07/06 05:20:20;;;;;;;10.60;5.32;;;;;;;;;;5071808;28;20592;-58
2023/07/06 05:22:48;;;;;;;10.05;5.78;;;;;;;;;;5065795;28;20032;-57
2023/07/06 05:25:15;;;;;;;9.02;5.53;;;;;;;;;;5066104;28;20028;-58
2023/07/06 05:27:41;;;;;;;11.93;5.15;;;;;;;;;;5057980;28;20047;-55
2023/07/06 05:30:08;;;;;;;10.20;5.82;;;;;;;;;;5069554;28;20039;-56
2023/07/06 05:32:34;;;;;;;8.50;5.35;;;;;;;;;;5060795;28;20032;-60
2023/07/06 05:35:00;;;;;;;6.97;4.15;;;;;;;;;;5076046;28;20067;-59
2023/07/06 05:37:26;;;;;;;;;;;;;;;;;;5059817;28;20468;-55
2023/07/06 05:39:52;;;;;;;7.35;4.30;;;;;;;;;;5066568;28;20442;-61
2023/07/06 05:42:18;;;;;;;;;;;;;;;;;;5064157;28;20064;-60
2023/07/06 05:44:44;;;;;;;8.60;4.45;;;;;;;;;;5070965;28;19920;-60
2023/07/06 05:47:10;;;;;;;5.57;4.03;;;;;;;;;;5063014;28;20064;-60
2023/07/06 05:49:37;;;;;;;8.15;4.40;;;;;;;;;;5066119;28;20220;-65
2023/07/06 05:52:06;;;;;;;8.32;4.20;;;;;;;;;;5062441;28;20418;-60
2023/07/06 05:54:33;;;;;;;9.93;4.22;;;;;;;;;;5065836;28;20412;-62
2023/07/06 05:57:00;;;;;;;8.05;4.20;;;;;;;;;;5062071;28;20041;-60
2023/07/06 05:59:27;;;;;;;6.90;4.18;;;;;;;;;;5066022;28;20109;-61
2023/07/06 06:01:53;;;;;;;7.35;4.60;;;;;;;;;;5055895;28;20178;-61
2023/07/06 06:04:19;;;;;;;8.45;5.20;;;;;;;;;;5063788;28;20036;-60
2023/07/06 06:06:47;;;;;;;7.55;5.47;;;;;;;;;;5066284;28;20079;-58
2023/07/06 06:09:13;;;;;;;5.68;4.32;;;;;;;;;;5075240;28;20488;-59
2023/07/06 06:11:39;;;;;;;7.63;4.28;;;;;;;;;;5059052;28;20029;-60
2023/07/06 06:14:05;;;;;;;6.63;4.13;;;;;;;;;;5061722;28;20036;-55
2023/07/06 06:16:34;;;;;;;11.07;4.18;;;;;;;;;;5057031;28;20046;-60
2023/07/06 06:19:01;;;;;;;8.18;4.47;;;;;;;;;;5069002;28;20092;-61
2023/07/06 06:21:30;;;;;;;7.93;3.92;;;;;;;;;;5068076;28;20039;-58
2023/07/06 06:23:57;;;;;;;7.53;4.07;;;;;;;;;;5069439;28;20042;-57
2023/07/06 06:26:23;;;;;;;4.95;3.20;;;;;;;;;;5063311;28;20120;-58
2023/07/06 06:28:49;;;;;;;5.85;3.08;;;;;;;;;;5066661;28;20036;-59
2023/07/06 06:31:15;;;;;;;;;;;;;;;;;;5065630;28;20067;-54
2023/07/06 06:33:42;;;;;;;6.05;3.50;;;;;;;;;;5063903;28;20011;-61
2023/07/06 06:36:08;;;;;;;5.57;2.75;;;;;;;;;;5061287;28;20063;-59
2023/07/06 06:38:34;;;;;;;6.90;3.28;;;;;;;;;;5067347;28;20092;-58
2023/07/06 06:41:07;;;;;;;3.53;2.33;;;;;;;;;;5067629;28;20400;-54
2023/07/06 06:43:36;;;;;;;6.80;2.30;;;;;;;;;;5055837;28;20073;-57
2023/07/06 06:46:03;;;;;;;5.72;2.97;;;;;;;;;;5054145;28;20044;-57
2023/07/06 06:48:29;;;;;;;4.22;2.30;;;;;;;;;;5056152;28;20033;-58
2023/07/06 06:50:56;;;;;;;6.53;2.75;;;;;;;;;;5065971;28;20131;-55
2023/07/06 06:53:23;;;;;;;7.70;2.40;;;;;;;;;;5060157;28;20152;-59
2023/07/06 06:55:49;;;;;;;4.70;2.38;;;;;;;;;;5061711;28;20047;-61
2023/07/06 06:58:15;;;;;;;;;;;;;;;;;;5058869;28;20036;-56
2023/07/06 07:00:41;;;;;;;6.45;2.10;;;;;;;;;;5061576;28;19960;-59
2023/07/06 07:03:13;;;;;;;4.97;2.10;;;;;;;;;;5063796;28;20039;-53
2023/07/06 07:05:39;;;;;;;5.97;2.08;;;;;;;;;;5053365;28;20114;-61
2023/07/06 07:08:05;;;;;;;;;;;;;;;;;;5061444;28;20484;-56
2023/07/06 07:10:31;;;;;;;4.40;2.17;;;;;;;;;;5068934;28;19975;-57
2023/07/06 07:12:57;;;;;;;4.47;2.10;;;;;;;;;;5064333;28;20110;-58
2023/07/06 07:15:24;;;;;;;;;;;;;;;;;;5073357;28;20496;-58
2023/07/06 07:17:51;;;;;;;3.20;1.58;;;;;;;;;;5061912;28;20026;-61
2023/07/06 07:20:18;;;;;;;3.13;1.83;;;;;;;;;;5062200;28;20474;-59
2023/07/06 07:22:44;;;;;;;5.05;1.83;;;;;;;;;;5062952;28;20484;-59
2023/07/06 07:25:11;;;;;;;4.45;1.42;;;;;;;;;;5062303;28;20719;-61
2023/07/06 07:27:37;;;;;;;2.58;1.40;;;;;;;;;;5062942;28;20036;-60
2023/07/06 07:30:04;;;;;;;4.93;1.63;;;;;;;;;;5097129;28;20404;-62
2023/07/06 07:32:30;;;;;;;7.72;1.60;;;;;;;;;;5059293;28;20871;-60
2023/07/06 07:34:57;;;;;;;4.88;1.17;;;;;;;;;;5072997;28;20037;-58
2023/07/06 07:37:23;;;;;;;6.07;1.63;;;;;;;;;;5065532;28;20042;-61
2023/07/06 07:39:49;;;;;;;3.33;1.80;;;;;;;;;;5069615;28;20032;-54
2023/07/06 07:42:16;;;;;;;5.25;1.42;;;;;;;;;;5066390;28;20043;-51
2023/07/06 07:44:44;;;;;;;2.75;1.38;;;;;;;;;;5065410;28;20116;-58
2023/07/06 07:47:10;;;;;;;5.93;1.27;;;;;;;;;;5057843;28;20049;-58
2023/07/06 07:49:37;;;;;;;3.45;1.45;;;;;;;;;;5067302;28;20082;-58
2023/07/06 07:52:03;;;;;;;3.78;1.33;;;;;;;;;;5070991;28;20041;-53
2023/07/06 07:54:30;;;;;;;3.58;1.05;;;;;;;;;;5071350;28;20040;-59
2023/07/06 07:56:56;;;;;;;7.25;1.70;;;;;;;;;;5065747;28;20131;-59
2023/07/06 07:59:25;;;;;;;3.35;1.35;;;;;;;;;;5066391;28;20123;-56
2023/07/06 08:01:51;;;;;;;2.78;1.13;;;;;;;;;;5058615;28;20861;-59
2023/07/06 08:04:18;;;;;;;2.83;1.10;;;;;;;;;;5074695;28;20048;-55
2023/07/06 08:06:44;;;;;;;5.38;1.40;;;;;;;;;;5065104;28;20051;-59
2023/07/06 08:09:10;;;;;;;4.18;1.23;;;;;;;;;;5070330;28;20094;-51
2023/07/06 08:11:46;;;;;;;2.45;0.90;;;;;;;;;;5083608;28;20029;-60
2023/07/06 08:14:14;;;;;;;3.28;1.42;;;;;;;;;;5063456;28;20119;-60
2023/07/06 08:16:40;;;;;;;1.98;0.88;;;;;;;;;;5065492;28;20044;-60
2023/07/06 08:19:09;;;;;;;4.82;1.08;;;;;;;;;;5071070;28;20055;-59
2023/07/06 08:21:35;;;;;;;3.58;1.23;;;;;;;;;;5070628;28;20090;-60
2023/07/06 08:24:01;;;;;;;3.17;1.13;;;;;;;;;;5069762;28;20048;-60
2023/07/06 08:26:31;;;;;;;5.00;1.33;;;;;;;;;;5070525;28;20113;-61
2023/07/06 08:28:57;;;;;;;3.45;1.73;;;;;;;;;;5064349;28;20115;-57
2023/07/06 08:31:24;;;;;;;2.63;1.08;;;;;;;;;;5066788;28;20044;-57
2023/07/06 08:33:50;;;;;;;2.95;1.42;;;;;;;;;;5074889;28;20051;-58
2023/07/06 08:36:18;;;;;;;4.45;1.25;;;;;;;;;;5071469;28;20039;-59
2023/07/06 08:38:44;;;;;;;3.15;1.42;;;;;;;;;;5068440;28;20102;-59
2023/07/06 08:41:30;;;;;;;1.98;1.27;;;;;;;;;;5068548;28;22299;-57
2023/07/06 08:44:00;;;;;;;3.30;1.33;;;;;;;;;;5064289;28;20046;-54
2023/07/06 08:46:31;;;;;;;3.83;1.58;;;;;;;;;;5064315;28;20520;-57
2023/07/06 08:48:57;;;;;;;3.25;1.45;;;;;;;;;;5067201;28;20101;-59
2023/07/06 08:51:30;;;;;;;4.32;1.30;;;;;;;;;;5067056;28;20047;-57
2023/07/06 08:54:01;;;;;;;2.38;1.00;;;;;;;;;;5068247;28;20033;-55
2023/07/06 08:56:28;;;;;;;4.22;1.23;;;;;;;;;;5067530;28;20722;-58
2023/07/06 08:58:55;;;;;;;3.00;1.13;;;;;;;;;;5059711;28;20051;-58
2023/07/06 09:01:22;;;;;;;3.08;1.23;;;;;;;;;;5068357;28;20060;-60
2023/07/06 09:03:50;;;;;;;2.47;1.20;;;;;;;;;;5072558;28;20048;-55
2023/07/06 09:06:18;;;;;;;3.05;1.02;;;;;;;;;;5073829;28;20040;-58
2023/07/06 09:08:48;;;;;;;1.60;0.90;;;;;;;;;;5068273;28;20075;-59
2023/07/06 09:11:15;;;;;;;6.25;1.15;;;;;;;;;;5068603;28;20115;-55
2023/07/06 09:13:49;;;;;;;2.35;1.10;;;;;;;;;;5064956;28;20035;-57
2023/07/06 09:16:19;;;;;;;4.80;1.48;;;;;;;;;;5063865;28;20075;-59
2023/07/06 09:18:46;;;;;;;3.53;1.23;;;;;;;;;;5087641;28;20040;-59
2023/07/06 09:21:13;;;;;;;4.43;1.35;;;;;;;;;;5070745;28;20120;-60
2023/07/06 09:23:39;;;;;;;1.35;0.98;;;;;;;;;;5088587;28;20115;-55
2023/07/06 09:26:06;;;;;;;1.92;1.13;;;;;;;;;;5072236;28;20051;-58
2023/07/06 09:28:32;;;;;;;2.53;1.20;;;;;;;;;;5061696;28;20040;-59
2023/07/06 09:31:06;;;;;;;4.75;1.30;;;;;;;;;;5067682;28;20041;-55
2023/07/06 09:33:32;;;;;;;2.17;1.13;;;;;;;;;;5060378;28;20041;-56
2023/07/06 09:35:58;;;;;;;5.25;1.67;;;;;;;;;;5070021;28;20033;-54
2023/07/06 09:38:27;;;;;;;4.35;1.45;;;;;;;;;;5066666;28;20040;-58
2023/07/06 09:40:54;;;;;;;2.10;1.08;;;;;;;;;;5071042;28;20029;-60
2023/07/06 09:43:23;;;;;;;3.85;1.02;;;;;;;;;;5061421;28;20396;-54
2023/07/06 09:45:50;;;;;;;1.27;1.05;;;;;;;;;;5067927;28;20040;-61
2023/07/06 09:48:25;;;;;;;5.50;1.30;;;;;;;;;;5063288;28;20052;-56
2023/07/06 09:50:52;;;;;;;3.30;1.20;;;;;;;;;;5069983;28;20028;-60
2023/07/06 09:53:26;;;;;;;3.50;1.20;;;;;;;;;;5067973;28;20157;-53
2023/07/06 09:55:54;;;;;;;3.92;0.98;;;;;;;;;;5067932;28;20052;-55
2023/07/06 09:58:23;;;;;;;3.17;1.02;;;;;;;;;;5062172;28;20630;-54
2023/07/06 10:00:53;;;;;;;1.90;1.23;;;;;;;;;;5071223;28;20563;-61
2023/07/06 10:03:36;;;;;;;6.97;1.38;;;;;;;;;;5066890;28;20037;-58
2023/07/06 10:06:23;;;;;;;2.70;1.27;;;;;;;;;;5072232;28;20045;-58
2023/07/06 10:08:53;;;;;;;3.15;1.10;;;;;;;;;;5067433;28;20036;-55
2023/07/06 10:11:34;;;;;;;1.90;0.98;;;;;;;;;;5069506;28;20040;-58
2023/07/06 10:14:09;;;;;;;3.50;1.20;;;;;;;;;;5060750;28;20102;-57
2023/07/06 10:16:51;;;;;;;7.32;1.20;;;;;;;;;;5064060;28;20047;-53
2023/07/06 10:19:17;;;;;;;2.92;1.52;;;;;;;;;;5071093;28;20658;-56
2023/07/06 10:21:45;;;;;;;4.22;1.48;;;;;;;;;;5065823;28;20186;-62
2023/07/06 10:24:15;;;;;;;3.83;1.30;;;;;;;;;;5067730;28;20064;-56
2023/07/06 10:26:54;;;;;;;4.90;1.30;;;;;;;;;;5069260;28;20066;-60
2023/07/06 10:29:27;;;;;;;3.17;1.33;;;;;;;;;;5065487;28;20041;-59
2023/07/06 10:31:55;;;;;;;1.70;1.00;;;;;;;;;;5059867;28;20037;-59
2023/07/06 10:34:44;;;;;;;2.35;1.00;;;;;;;;;;5063423;28;20036;-59
2023/07/06 10:37:13;;;;;;;3.42;1.45;;;;;;;;;;5064018;28;20040;-56
2023/07/06 10:39:45;;;;;;;4.18;1.33;;;;;;;;;;5070481;28;20086;-60
2023/07/06 10:42:22;;;;;;;2.70;1.20;;;;;;;;;;5061858;28;20040;-60
2023/07/06 10:44:58;;;;;;;6.20;1.23;;;;;;;;;;5071505;28;20040;-54
2023/07/06 10:47:24;;;;;;;;;;;;;;;;;;5057727;28;20241;-58
2023/07/06 10:50:08;;;;;;;2.97;1.03;;;;;;;;;;5067436;28;19920;-57
2023/07/06 10:52:38;;;;;;;2.60;1.20;;;;;;;;;;5058223;28;20039;-61
2023/07/06 10:55:24;;;;;;;2.95;1.40;;;;;;;;;;5069279;28;20121;-58
2023/07/06 10:57:51;;;;;;;3.08;1.00;;;;;;;;;;5056514;28;20531;-54
2023/07/06 11:00:17;;;;;;;5.47;1.27;;;;;;;;;;5068706;28;20521;-59
2023/07/06 11:02:44;;;;;;;4.03;1.05;;;;;;;;;;5059384;28;20724;-59
2023/07/06 11:05:16;;;;;;;4.78;1.20;;;;;;;;;;5062611;28;20040;-59
2023/07/06 11:07:46;;;;;;;2.28;1.25;;;;;;;;;;5062473;28;20132;-56
2023/07/06 11:10:12;;;;;;;2.17;1.00;;;;;;;;;;5071798;28;20032;-57
2023/07/06 11:12:51;;;;;;;3.53;1.08;;;;;;;;;;5062570;28;20040;-58
2023/07/06 11:15:17;;;;;;;3.25;1.00;;;;;;;;;;5068638;28;20078;-58
2023/07/06 11:17:48;;;;;;;2.95;1.20;;;;;;;;;;5063067;28;20109;-53
2023/07/06 11:20:22;;;;;;;1.73;0.93;;;;;;;;;;5064812;28;20051;-59
2023/07/06 11:22:52;;;;;;;3.78;1.30;;;;;;;;;;5062337;28;20042;-57
2023/07/06 11:25:19;;;;;;;2.53;1.45;;;;;;;;;;5076217;28;20442;-62
2023/07/06 11:27:48;;;;;;;3.38;1.40;;;;;;;;;;5063507;28;20090;-60
2023/07/06 11:30:14;;;;;;;4.03;1.30;;;;;;;;;;5067106;28;20089;-58
2023/07/06 11:32:40;;;;;;;3.78;1.00;;;;;;;;;;5062288;28;20036;-58
2023/07/06 11:35:10;;;;;;;1.83;1.13;;;;;;;;;;5066303;28;20038;-54
2023/07/06 11:37:40;;;;;;;3.38;1.08;;;;;;;;;;5053321;28;20047;-54
2023/07/06 11:40:25;;;;;;;3.33;1.20;;;;;;;;;;5075053;28;20096;-57
2023/07/06 11:43:02;;;;;;;5.18;1.10;;;;;;;;;;5065657;28;20085;-57
2023/07/06 11:45:44;;;;;;;2.63;1.10;;;;;;;;;;5075261;28;20052;-54
2023/07/06 11:48:13;;;;;;;1.15;0.90;;;;;;;;;;5065546;28;20508;-60
2023/07/06 11:50:40;;;;;;;3.70;1.00;;;;;;;;;;5061788;28;20150;-57
2023/07/06 11:53:17;;;;;;;2.05;1.10;;;;;;;;;;5079621;28;20145;-56
2023/07/06 11:55:54;;;;;;;4.32;1.30;;;;;;;;;;5052296;28;20059;-61
2023/07/06 11:58:28;;;;;;;3.67;1.45;;;;;;;;;;5059606;28;20082;-58
2023/07/06 12:00:56;;;;;;;2.35;1.00;;;;;;;;;;5062221;28;20033;-58
2023/07/06 12:03:26;;;;;;;1.70;0.88;;;;;;;;;;5066789;28;20044;-57
2023/07/06 12:05:54;;;;;;;5.25;1.35;;;;;;;;;;5067055;28;20036;-59
2023/07/06 12:08:29;;;;;;;1.95;0.90;;;;;;;;;;5064129;28;20037;-59
2023/07/06 12:11:06;;;;;;;4.00;1.00;;;;;;;;;;5061035;28;20557;-57
2023/07/06 12:13:40;;;;;;;2.28;0.90;;;;;;;;;;5059229;28;20040;-59
2023/07/06 12:16:13;;;;;;;2.63;0.90;;;;;;;;;;5067587;28;20092;-55
2023/07/06 12:18:46;;;;;;;3.92;1.10;;;;;;;;;;5068285;28;20632;-56
2023/07/06 12:21:30;;;;;;;1.45;0.70;;;;;;;;;;5068017;28;20119;-59
2023/07/06 12:24:00;;;;;;;1.58;0.88;;;;;;;;;;5069558;28;20575;-56
2023/07/06 12:26:29;;;;;;;1.67;1.10;;;;;;;;;;5065277;28;20032;-51
2023/07/06 12:28:56;;;;;;;2.10;1.08;;;;;;;;;;5063138;28;20039;-57
2023/07/06 12:31:23;;;;;;;2.08;0.90;;;;;;;;;;5061082;28;20158;-60
2023/07/06 12:33:52;;;;;;;1.33;0.70;;;;;;;;;;5073858;28;20058;-56
2023/07/06 12:36:21;;;;;;;3.03;0.90;;;;;;;;;;5063563;28;20037;-58
2023/07/06 12:38:47;;;;;;;2.88;0.90;;;;;;;;;;5068399;28;20047;-59
2023/07/06 12:41:19;;;;;;;1.42;0.80;;;;;;;;;;5064980;28;20045;-58
2023/07/06 12:43:45;;;;;;;1.50;0.90;;;;;;;;;;5068592;28;20170;-57
2023/07/06 12:46:12;;;;;;;5.63;0.95;;;;;;;;;;5060643;28;22051;-59
2023/07/06 12:48:42;;;;;;;3.17;0.90;;;;;;;;;;5065474;28;20058;-60
2023/07/06 12:51:11;;;;;;;3.53;0.88;;;;;;;;;;5067243;28;20082;-58
2023/07/06 12:53:38;;;;;;;4.03;1.38;;;;;;;;;;5067509;28;20500;-59
2023/07/06 12:56:14;;;;;;;1.88;1.02;;;;;;;;;;5063408;28;20043;-56
2023/07/06 12:58:44;;;;;;;1.00;0.70;;;;;;;;;;5062159;28;20036;-60
2023/07/06 13:01:10;;;;;;;4.05;1.08;;;;;;;;;;5063083;28;20077;-57
2023/07/06 13:03:56;;;;;;;1.02;0.77;;;;;;;;;;5068762;28;20127;-62
2023/07/06 13:06:24;;;;;;;0.90;0.60;;;;;;;;;;5064625;28;20160;-57
2023/07/06 13:09:01;;;;;;;1.73;0.60;;;;;;;;;;5067869;28;20127;-58
2023/07/06 13:11:27;;;;;;;1.55;0.65;;;;;;;;;;5065863;28;20091;-59
2023/07/06 13:14:02;;;;;;;1.23;0.70;;;;;;;;;;5074432;28;20036;-57
2023/07/06 13:16:37;;;;;;;0.98;0.60;;;;;;;;;;5064878;28;20068;-59
2023/07/06 13:19:03;;;;;;;4.72;0.90;;;;;;;;;;5067903;28;20048;-58
2023/07/06 13:21:30;;;;;;;0.82;0.47;;;;;;;;;;5058490;28;20500;-53
2023/07/06 13:23:58;;;;;;;4.60;0.80;;;;;;;;;;5062633;28;20538;-58
2023/07/06 13:26:26;;;;;;;1.30;0.68;;;;;;;;;;5067596;28;20106;-54
2023/07/06 13:28:53;;;;;;;1.48;0.88;;;;;;;;;;5068386;28;20044;-58
2023/07/06 13:31:19;;;;;;;1.38;0.65;;;;;;;;;;5067347;28;20428;-56
2023/07/06 13:33:46;;;;;;;3.42;0.70;;;;;;;;;;5073572;28;20028;-56
2023/07/06 13:36:16;;;;;;;2.15;0.90;;;;;;;;;;5068159;28;20064;-59
2023/07/06 13:38:43;;;;;;;4.75;1.00;;;;;;;;;;5067081;28;20048;-55
2023/07/06 13:41:11;;;;;;;1.67;0.80;;;;;;;;;;5065415;28;20044;-60
2023/07/06 13:43:38;;;;;;;1.67;0.70;;;;;;;;;;5066925;28;20377;-59
2023/07/06 13:46:04;;;;;;;1.30;0.65;;;;;;;;;;5068297;28;20048;-52
2023/07/06 13:48:31;;;;;;;3.47;0.75;;;;;;;;;;5066073;28;20624;-55
2023/07/06 13:50:57;;;;;;;1.15;0.60;;;;;;;;;;5069737;28;20575;-60
2023/07/06 13:53:26;;;;;;;2.17;0.80;;;;;;;;;;5066883;28;20047;-61
2023/07/06 13:55:54;;;;;;;1.90;0.70;;;;;;;;;;5070085;28;20040;-60
2023/07/06 13:58:24;;;;;;;1.45;0.63;;;;;;;;;;5065710;28;20036;-56
2023/07/06 14:00:50;;;;;;;1.17;0.80;;;;;;;;;;5066314;28;20067;-58
2023/07/06 14:03:18;;;;;;;0.82;0.80;;;;;;;;;;5065534;28;20040;-59
2023/07/06 14:05:44;;;;;;;3.33;1.08;;;;;;;;;;5068421;28;20036;-56
2023/07/06 14:08:11;;;;;;;2.65;0.82;;;;;;;;;;5065282;28;20040;-54
2023/07/06 14:10:38;;;;;;;2.35;0.85;;;;;;;;;;5068970;28;20048;-58
2023/07/06 14:13:04;;;;;;;1.40;0.82;;;;;;;;;;5065501;28;20032;-57
2023/07/06 14:15:33;;;;;;;1.55;0.75;;;;;;;;;;5069641;28;20074;-58
2023/07/06 14:17:59;;;;;;;1.95;0.70;;;;;;;;;;5060902;28;20032;-58
2023/07/06 14:20:26;;;;;;;1.88;0.60;;;;;;;;;;5067701;28;20062;-61
2023/07/06 14:22:52;;;;;;;4.68;1.17;;;;;;;;;;5065806;28;20044;-59
2023/07/06 14:25:20;;;;;;;0.93;0.68;;;;;;;;;;5070373;28;20173;-61
2023/07/06 14:27:46;;;;;;;1.42;0.65;;;;;;;;;;5057652;28;20443;-55
2023/07/06 14:30:13;;;;;;;4.60;0.88;;;;;;;;;;5072071;28;20044;-59
2023/07/06 14:32:40;;;;;;;2.28;0.80;;;;;;;;;;5062892;28;20039;-59
2023/07/06 14:35:06;;;;;;;1.75;0.88;;;;;;;;;;5073258;28;20048;-61
2023/07/06 14:37:32;;;;;;;2.30;0.80;;;;;;;;;;5057480;28;20071;-60
2023/07/06 14:39:58;;;;;;;1.98;1.10;;;;;;;;;;5068112;28;20952;-61
2023/07/06 14:42:24;;;;;;;3.35;1.10;;;;;;;;;;5064693;28;20130;-57
2023/07/06 14:44:50;;;;;;;1.83;0.70;;;;;;;;;;5068790;28;20160;-57
2023/07/06 14:47:16;;;;;;;2.53;1.10;;;;;;;;;;5063486;28;20044;-55
2023/07/06 14:49:42;;;;;;;1.55;0.68;;;;;;;;;;5065340;28;20699;-59
2023/07/06 14:52:08;;;;;;;1.52;0.75;;;;;;;;;;5064609;28;20033;-59
2023/07/06 14:54:34;;;;;;;4.10;0.80;;;;;;;;;;5065689;28;20083;-61
2023/07/06 14:57:00;;;;;;;3.08;0.80;;;;;;;;;;5061353;28;20051;-59